createdAt,value
2022-12-01T00:00:55.065Z,100300.91
2022-12-01T00:01:56.776Z,100300.91
2022-12-01T00:02:59.430Z,100297.47
2022-12-01T00:04:01.056Z,100297.38
2022-12-01T00:05:03.567Z,100291.19
2022-12-01T00:06:07.703Z,100293.75
2022-12-01T00:07:09.806Z,100292.94
2022-12-01T00:08:11.404Z,100292.22
2022-12-01T00:09:17.951Z,100290.53
2022-12-01T00:10:22.227Z,100290.44
2022-12-01T00:11:23.831Z,100287.69
2022-12-01T00:12:25.478Z,100293.78
2022-12-01T00:13:27.608Z,100289.63
2022-12-01T00:14:30.102Z,100287.91
2022-12-01T00:15:34.248Z,100298.16
2022-12-01T00:16:36.044Z,100293.00
2022-12-01T00:17:39.121Z,100300.13
2022-12-01T00:18:41.247Z,100301.00
2022-12-01T00:19:42.804Z,100297.63
2022-12-01T00:20:44.319Z,100303.63
2022-12-01T00:21:46.627Z,100306.19
2022-12-01T00:22:49.309Z,100299.34
2022-12-01T00:23:53.799Z,100301.13
2022-12-01T00:24:56.063Z,100297.84
2022-12-01T00:26:06.834Z,100303.75
2022-12-01T00:27:09.290Z,100296.84
2022-12-01T00:28:11.016Z,100298.41
2022-12-01T00:29:12.541Z,100294.88
2022-12-01T00:30:14.668Z,100293.25
2022-12-01T00:31:16.593Z,100298.31
2022-12-01T00:32:18.924Z,100290.53
2022-12-01T00:33:20.436Z,100293.97
2022-12-01T00:34:25.131Z,100293.13
2022-12-01T00:35:26.644Z,100292.22
2022-12-01T00:36:28.311Z,100301.63
2022-12-01T00:37:31.066Z,100298.03
2022-12-01T00:38:34.555Z,100303.97
2022-12-01T00:39:36.824Z,100301.25
2022-12-01T00:40:38.623Z,100303.66
2022-12-01T00:41:40.136Z,100308.84
2022-12-01T00:42:41.705Z,100302.72
2022-12-01T00:43:43.236Z,100299.50
2022-12-01T00:44:44.731Z,100298.53
2022-12-01T00:45:46.644Z,100301.94
2022-12-01T00:46:48.709Z,100301.03
2022-12-01T00:47:50.830Z,100301.16
2022-12-01T00:48:52.962Z,100304.66
2022-12-01T00:49:54.562Z,100301.31
2022-12-01T00:50:56.368Z,100297.88
2022-12-01T00:51:58.199Z,100298.72
2022-12-01T00:53:00.154Z,100292.75
2022-12-01T00:54:01.592Z,100292.69
2022-12-01T00:55:03.010Z,100287.59
2022-12-01T00:56:04.872Z,100290.53
2022-12-01T00:57:07.142Z,100295.81
2022-12-01T00:58:08.665Z,100292.66
2022-12-01T00:59:11.237Z,100292.47
2022-12-01T01:00:13.886Z,100290.72
2022-12-01T01:01:15.528Z,100295.03
2022-12-01T01:02:17.105Z,100292.44
2022-12-01T01:03:18.744Z,100287.94
2022-12-01T01:04:20.401Z,100285.63
2022-12-01T01:05:22.997Z,100290.47
2022-12-01T01:06:25.119Z,100296.81
2022-12-01T01:07:26.990Z,100290.72
2022-12-01T01:08:29.305Z,100282.94
2022-12-01T01:09:32.504Z,100286.56
2022-12-01T01:10:35.174Z,100288.41
2022-12-01T01:11:36.897Z,100290.16
2022-12-01T01:12:38.426Z,100286.59
2022-12-01T01:13:40.013Z,100295.25
2022-12-01T01:14:41.992Z,100283.16
2022-12-01T01:15:43.644Z,100290.94
2022-12-01T01:16:45.219Z,100292.75
2022-12-01T01:17:47.514Z,100297.00
2022-12-01T01:18:49.523Z,100291.88
2022-12-01T01:19:53.776Z,100290.88
2022-12-01T01:20:59.912Z,100287.34
2022-12-01T01:22:02.037Z,100288.25
2022-12-01T01:23:03.919Z,100287.50
2022-12-01T01:24:06.295Z,100294.47
2022-12-01T01:25:08.423Z,100283.28
2022-12-01T01:26:16.562Z,100286.72
2022-12-01T01:27:19.703Z,100286.00
2022-12-01T01:28:21.312Z,100291.09
2022-12-01T01:29:23.925Z,100285.13
2022-12-01T01:30:26.178Z,100285.28
2022-12-01T01:31:29.759Z,100286.25
2022-12-01T01:32:31.288Z,100284.34
2022-12-01T01:33:32.965Z,100281.66
2022-12-01T01:34:34.591Z,100279.00
2022-12-01T01:35:36.717Z,100279.03
2022-12-01T01:36:38.423Z,100274.56
2022-12-01T01:37:40.010Z,100273.75
2022-12-01T01:38:42.115Z,100274.63
2022-12-01T01:39:43.937Z,100277.09
2022-12-01T01:40:47.385Z,100269.97
2022-12-01T01:41:49.310Z,100275.06
2022-12-01T01:42:50.803Z,100270.66
2022-12-01T01:44:33.802Z,100274.28
2022-12-01T01:45:36.045Z,100271.03
2022-12-01T01:46:37.976Z,100269.22
2022-12-01T01:47:41.260Z,100270.22
2022-12-01T01:48:50.906Z,100266.66
2022-12-01T01:49:55.225Z,100269.22
2022-12-01T01:50:57.663Z,100264.91
2022-12-01T01:51:59.788Z,100272.44
2022-12-01T01:53:04.923Z,100267.97
2022-12-01T01:54:12.797Z,100265.19
2022-12-01T01:55:15.229Z,100268.56
2022-12-01T01:56:17.317Z,100265.91
2022-12-01T01:57:26.234Z,100264.06
2022-12-01T01:58:28.587Z,100261.34
2022-12-01T01:59:34.985Z,100258.09
2022-12-01T02:00:39.852Z,100261.56
2022-12-01T02:01:42.058Z,100258.91
2022-12-01T02:02:45.586Z,100259.66
2022-12-01T02:03:49.246Z,100259.69
2022-12-01T02:04:56.711Z,100257.31
2022-12-01T02:06:03.446Z,100258.09
2022-12-01T02:07:07.570Z,100262.44
2022-12-01T02:08:09.831Z,100259.75
2022-12-01T02:09:12.255Z,100258.00
2022-12-01T02:10:16.572Z,100252.03
2022-12-01T02:11:28.835Z,100254.56
2022-12-01T02:12:58.232Z,100258.72
2022-12-01T02:14:16.403Z,100252.69
2022-12-01T02:15:36.682Z,100250.81
2022-12-01T02:17:10.772Z,100247.22
2022-12-01T02:18:36.267Z,100248.22
2022-12-01T02:20:00.502Z,100250.84
2022-12-01T02:21:25.022Z,100247.31
2022-12-01T02:23:30.195Z,100244.41
2022-12-01T02:24:50.796Z,100248.88
2022-12-01T02:26:30.027Z,100241.88
2022-12-01T02:27:49.192Z,100247.16
2022-12-01T02:28:59.347Z,100248.03
2022-12-01T02:30:03.572Z,100251.34
2022-12-01T02:31:19.162Z,100247.00
2022-12-01T02:32:39.783Z,100253.94
2022-12-01T02:33:53.938Z,100250.59
2022-12-01T02:35:26.750Z,100251.50
2022-12-01T02:36:34.262Z,100257.72
2022-12-01T02:37:52.315Z,100252.53
2022-12-01T02:38:58.557Z,100258.50
2022-12-01T02:40:24.403Z,100254.22
2022-12-01T02:41:34.425Z,100253.97
2022-12-01T02:42:44.023Z,100247.91
2022-12-01T02:43:59.951Z,100256.47
2022-12-01T02:45:05.466Z,100246.81
2022-12-01T02:46:33.592Z,100248.63
2022-12-01T02:47:38.407Z,100254.50
2022-12-01T02:48:43.255Z,100251.91
2022-12-01T02:49:51.081Z,100249.25
2022-12-01T02:50:55.065Z,100245.06
2022-12-01T02:51:59.199Z,100251.84
2022-12-01T02:53:03.340Z,100255.13
2022-12-01T02:54:06.103Z,100246.38
2022-12-01T02:55:07.988Z,100244.50
2022-12-01T02:56:14.736Z,100247.75
2022-12-01T02:57:17.212Z,100248.50
2022-12-01T02:58:18.853Z,100250.97
2022-12-01T02:59:21.112Z,100247.41
2022-12-01T03:00:23.214Z,100244.66
2022-12-01T03:02:13.071Z,100244.53
2022-12-01T03:03:32.454Z,100240.09
2022-12-01T03:04:56.799Z,100241.78
2022-12-01T03:06:29.946Z,100239.25
2022-12-01T03:07:38.163Z,100235.81
2022-12-01T03:09:08.877Z,100235.81
2022-12-01T03:10:13.248Z,100230.81
2022-12-01T03:11:22.583Z,100231.69
2022-12-01T03:12:37.423Z,100231.69
2022-12-01T03:13:55.897Z,100235.25
2022-12-01T03:15:06.766Z,100231.88
2022-12-01T03:16:16.248Z,100224.31
2022-12-01T03:17:23.313Z,100213.19
2022-12-01T03:18:43.466Z,100221.16
2022-12-01T03:19:50.448Z,100215.25
2022-12-01T03:21:03.756Z,100215.31
2022-12-01T03:22:11.535Z,100204.13
2022-12-01T03:23:20.038Z,100216.19
2022-12-01T03:24:25.010Z,100205.84
2022-12-01T03:25:30.300Z,100214.50
2022-12-01T03:26:34.511Z,100214.56
2022-12-01T03:27:41.783Z,100216.59
2022-12-01T03:28:56.720Z,100213.13
2022-12-01T03:30:00.350Z,100212.34
2022-12-01T03:31:08.013Z,100208.16
2022-12-01T03:32:25.910Z,100214.09
2022-12-01T03:33:34.088Z,100216.59
2022-12-01T03:34:46.435Z,100215.66
2022-12-01T03:35:54.096Z,100214.75
2022-12-01T03:37:09.832Z,100217.25
2022-12-01T03:38:20.362Z,100212.34
2022-12-01T03:39:27.997Z,100212.56
2022-12-01T03:40:33.149Z,100207.44
2022-12-01T03:41:39.403Z,100210.81
2022-12-01T03:42:46.414Z,100209.16
2022-12-01T03:44:05.583Z,100211.75
2022-12-01T03:45:11.826Z,100203.03
2022-12-01T03:46:22.662Z,100211.66
2022-12-01T03:47:27.692Z,100211.81
2022-12-01T03:48:30.619Z,100210.94
2022-12-01T03:49:32.951Z,100215.22
2022-12-01T03:51:12.893Z,100214.41
2022-12-01T03:52:43.492Z,100212.50
2022-12-01T03:54:04.117Z,100214.09
2022-12-01T03:55:20.792Z,100209.75
2022-12-01T03:56:25.387Z,100207.16
2022-12-01T03:57:36.057Z,100208.97
2022-12-01T03:58:43.365Z,100209.66
2022-12-01T03:59:46.862Z,100206.34
2022-12-01T04:00:49.724Z,100199.41
2022-12-01T04:01:51.679Z,100199.50
2022-12-01T04:02:58.938Z,100202.00
2022-12-01T04:04:07.021Z,100205.72
2022-12-01T04:05:08.889Z,100209.09
2022-12-01T04:06:10.662Z,100205.69
2022-12-01T04:07:12.401Z,100197.16
2022-12-01T04:08:14.042Z,100202.22
2022-12-01T04:09:15.827Z,100196.03
2022-12-01T04:10:17.773Z,100202.88
2022-12-01T04:11:19.902Z,100200.31
2022-12-01T04:12:21.521Z,100204.78
2022-12-01T04:13:23.161Z,100196.94
2022-12-01T04:14:25.282Z,100201.31
2022-12-01T04:15:27.590Z,100197.84
2022-12-01T04:16:29.583Z,100193.41
2022-12-01T04:17:31.661Z,100201.16
2022-12-01T04:18:33.787Z,100201.06
2022-12-01T04:19:35.415Z,100196.75
2022-12-01T04:20:37.037Z,100198.38
2022-12-01T04:21:39.169Z,100193.09
2022-12-01T04:22:42.731Z,100197.31
2022-12-01T04:23:44.423Z,100204.13
2022-12-01T04:24:46.550Z,100196.34
2022-12-01T04:25:48.671Z,100198.88
2022-12-01T04:26:50.301Z,100204.13
2022-12-01T04:27:51.930Z,100206.88
2022-12-01T04:28:53.803Z,100202.63
2022-12-01T04:29:55.421Z,100204.19
2022-12-01T04:30:57.352Z,100208.25
2022-12-01T04:31:59.907Z,100210.59
2022-12-01T04:33:01.557Z,100205.13
2022-12-01T04:34:03.860Z,100208.66
2022-12-01T04:35:06.812Z,100203.38
2022-12-01T04:36:08.759Z,100209.38
2022-12-01T04:37:10.434Z,100202.44
2022-12-01T04:38:11.991Z,100199.72
2022-12-01T04:39:14.165Z,100204.06
2022-12-01T04:40:16.439Z,100204.88
2022-12-01T04:41:18.570Z,100210.84
2022-12-01T04:42:20.099Z,100215.13
2022-12-01T04:43:21.816Z,100211.56
2022-12-01T04:44:23.947Z,100205.50
2022-12-01T04:45:25.448Z,100212.38
2022-12-01T04:46:27.218Z,100219.25
2022-12-01T04:47:29.326Z,100219.38
2022-12-01T04:48:31.445Z,100221.06
2022-12-01T04:49:33.576Z,100214.94
2022-12-01T04:50:35.217Z,100211.56
2022-12-01T04:51:36.829Z,100218.44
2022-12-01T04:52:38.411Z,100211.41
2022-12-01T04:53:40.456Z,100207.91
2022-12-01T04:54:42.197Z,100208.06
2022-12-01T04:55:43.981Z,100210.81
2022-12-01T04:56:45.600Z,100214.31
2022-12-01T04:57:47.581Z,100207.41
2022-12-01T04:58:49.701Z,100210.00
2022-12-01T04:59:52.186Z,100216.78
2022-12-01T05:00:53.981Z,100211.59
2022-12-01T05:01:56.029Z,100209.88
2022-12-01T05:02:58.656Z,100214.94
2022-12-01T05:04:00.289Z,100208.88
2022-12-01T05:05:01.770Z,100215.13
2022-12-01T05:06:10.473Z,100213.50
2022-12-01T05:07:12.039Z,100211.06
2022-12-01T05:08:13.551Z,100212.75
2022-12-01T05:09:17.679Z,100213.66
2022-12-01T05:10:19.417Z,100214.50
2022-12-01T05:11:21.372Z,100213.59
2022-12-01T05:12:23.233Z,100212.75
2022-12-01T05:13:25.352Z,100207.63
2022-12-01T05:14:27.018Z,100211.97
2022-12-01T05:15:29.162Z,100217.88
2022-12-01T05:16:32.755Z,100214.31
2022-12-01T05:17:37.101Z,100208.88
2022-12-01T05:18:39.981Z,100208.06
2022-12-01T05:19:42.061Z,100213.31
2022-12-01T05:20:43.578Z,100212.50
2022-12-01T05:21:47.288Z,100215.06
2022-12-01T05:23:05.711Z,100215.78
2022-12-01T05:24:10.058Z,100213.09
2022-12-01T05:25:11.676Z,100219.91
2022-12-01T05:26:14.227Z,100216.50
2022-12-01T05:27:16.842Z,100218.31
2022-12-01T05:28:19.003Z,100214.88
2022-12-01T05:29:20.501Z,100221.84
2022-12-01T05:30:28.235Z,100221.19
2022-12-01T05:31:31.438Z,100227.28
2022-12-01T05:32:33.502Z,100220.16
2022-12-01T05:33:35.088Z,100226.16
2022-12-01T05:34:36.597Z,100225.34
2022-12-01T05:35:38.381Z,100224.47
2022-12-01T05:36:39.987Z,100223.63
2022-12-01T05:37:41.734Z,100221.81
2022-12-01T05:38:43.244Z,100225.19
2022-12-01T05:39:44.959Z,100224.28
2022-12-01T05:40:53.913Z,100226.75
2022-12-01T05:41:55.523Z,100225.84
2022-12-01T05:42:58.778Z,100218.13
2022-12-01T05:44:00.537Z,100222.56
2022-12-01T05:45:02.050Z,100225.31
2022-12-01T05:46:04.221Z,100223.56
2022-12-01T05:47:06.315Z,100224.69
2022-12-01T05:48:09.760Z,100223.78
2022-12-01T05:49:11.551Z,100220.47
2022-12-01T05:50:13.663Z,100220.59
2022-12-01T05:51:16.780Z,100218.75
2022-12-01T05:52:18.489Z,100221.22
2022-12-01T05:53:20.532Z,100214.19
2022-12-01T05:54:22.127Z,100218.47
2022-12-01T05:55:24.108Z,100214.06
2022-12-01T05:56:26.832Z,100215.72
2022-12-01T05:57:28.495Z,100221.06
2022-12-01T05:58:30.540Z,100218.44
2022-12-01T05:59:32.024Z,100221.84
2022-12-01T06:00:33.847Z,100221.78
2022-12-01T06:01:35.572Z,100219.97
2022-12-01T06:02:37.487Z,100223.31
2022-12-01T06:03:39.197Z,100229.22
2022-12-01T06:04:41.322Z,100226.47
2022-12-01T06:05:42.884Z,100230.88
2022-12-01T06:06:44.720Z,100231.03
2022-12-01T06:07:46.709Z,100225.78
2022-12-01T06:08:48.820Z,100234.50
2022-12-01T06:09:50.710Z,100231.81
2022-12-01T06:10:53.042Z,100232.72
2022-12-01T06:11:55.200Z,100228.22
2022-12-01T06:12:56.904Z,100229.91
2022-12-01T06:13:59.452Z,100233.47
2022-12-01T06:15:01.145Z,100232.56
2022-12-01T06:16:05.485Z,100229.19
2022-12-01T06:17:07.123Z,100236.09
2022-12-01T06:18:08.962Z,100230.88
2022-12-01T06:19:10.479Z,100235.19
2022-12-01T06:20:12.896Z,100233.25
2022-12-01T06:21:14.387Z,100241.59
2022-12-01T06:22:15.906Z,100238.06
2022-12-01T06:23:17.589Z,100238.97
2022-12-01T06:24:19.162Z,100242.31
2022-12-01T06:25:20.706Z,100238.69
2022-12-01T06:26:22.329Z,100235.31
2022-12-01T06:27:23.911Z,100239.63
2022-12-01T06:28:25.471Z,100239.75
2022-12-01T06:29:27.091Z,100250.19
2022-12-01T06:30:28.872Z,100236.50
2022-12-01T06:31:30.403Z,100241.72
2022-12-01T06:32:31.948Z,100233.78
2022-12-01T06:33:33.737Z,100235.44
2022-12-01T06:34:35.308Z,100244.91
2022-12-01T06:35:37.190Z,100243.94
2022-12-01T06:36:39.182Z,100229.22
2022-12-01T06:37:40.932Z,100238.66
2022-12-01T06:38:42.557Z,100238.84
2022-12-01T06:39:44.023Z,100237.28
2022-12-01T06:40:45.385Z,100242.56
2022-12-01T06:41:46.990Z,100240.06
2022-12-01T06:42:48.667Z,100236.56
2022-12-01T06:43:50.255Z,100232.16
2022-12-01T06:44:51.910Z,100236.72
2022-12-01T06:45:59.433Z,100236.81
2022-12-01T06:47:03.743Z,100229.97
2022-12-01T06:48:05.403Z,100236.06
2022-12-01T06:49:10.594Z,100241.22
2022-12-01T06:50:12.436Z,100233.25
2022-12-01T06:51:14.029Z,100229.66
2022-12-01T06:52:15.610Z,100237.56
2022-12-01T06:53:17.183Z,100237.59
2022-12-01T06:54:19.622Z,100236.72
2022-12-01T06:55:21.501Z,100241.72
2022-12-01T06:56:23.619Z,100244.22
2022-12-01T06:57:26.116Z,100236.41
2022-12-01T06:58:28.083Z,100233.91
2022-12-01T06:59:30.288Z,100240.88
2022-12-01T07:00:32.330Z,100244.28
2022-12-01T07:01:34.059Z,100245.22
2022-12-01T07:02:36.310Z,100239.91
2022-12-01T07:03:39.250Z,100242.56
2022-12-01T07:04:40.916Z,100237.47
2022-12-01T07:05:42.466Z,100240.16
2022-12-01T07:06:44.186Z,100241.88
2022-12-01T07:07:45.869Z,100247.97
2022-12-01T07:08:47.437Z,100232.72
2022-12-01T07:09:49.361Z,100243.09
2022-12-01T07:11:06.688Z,100239.72
2022-12-01T07:12:08.668Z,100239.72
2022-12-01T07:13:10.539Z,100246.59
2022-12-01T07:14:20.030Z,100246.84
2022-12-01T07:15:21.707Z,100249.44
2022-12-01T07:16:23.445Z,100250.25
2022-12-01T07:17:25.504Z,100250.22
2022-12-01T07:18:27.326Z,100245.06
2022-12-01T07:19:28.850Z,100254.66
2022-12-01T07:20:30.645Z,100249.44
2022-12-01T07:21:32.233Z,100250.22
2022-12-01T07:22:33.844Z,100254.53
2022-12-01T07:23:35.633Z,100250.22
2022-12-01T07:24:37.166Z,100250.06
2022-12-01T07:25:38.842Z,100253.38
2022-12-01T07:26:41.168Z,100252.53
2022-12-01T07:27:42.765Z,100252.38
2022-12-01T07:28:45.176Z,100252.31
2022-12-01T07:29:47.388Z,100249.84
2022-12-01T07:30:49.110Z,100246.41
2022-12-01T07:31:50.622Z,100249.78
2022-12-01T07:32:52.352Z,100251.59
2022-12-01T07:33:53.970Z,100254.13
2022-12-01T07:34:55.600Z,100250.78
2022-12-01T07:35:57.402Z,100250.53
2022-12-01T07:36:58.909Z,100253.00
2022-12-01T07:38:00.578Z,100247.75
2022-12-01T07:39:06.429Z,100253.84
2022-12-01T07:40:08.628Z,100248.59
2022-12-01T07:41:11.404Z,100251.38
2022-12-01T07:42:12.945Z,100251.38
2022-12-01T07:43:14.685Z,100254.91
2022-12-01T07:44:16.466Z,100253.84
2022-12-01T07:45:17.965Z,100250.41
2022-12-01T07:46:25.863Z,100252.91
2022-12-01T07:47:27.458Z,100248.59
2022-12-01T07:48:29.978Z,100253.84
2022-12-01T07:49:31.553Z,100249.41
2022-12-01T07:50:33.091Z,100253.66
2022-12-01T07:51:34.711Z,100247.50
2022-12-01T07:52:36.211Z,100260.53
2022-12-01T07:53:37.836Z,100252.84
2022-12-01T07:54:39.457Z,100254.56
2022-12-01T07:55:48.133Z,100254.56
2022-12-01T07:56:49.676Z,100254.59
2022-12-01T07:57:51.286Z,100246.97
2022-12-01T07:58:52.786Z,100247.75
2022-12-01T07:59:54.283Z,100252.78
2022-12-01T08:00:55.873Z,100252.78
2022-12-01T08:01:57.452Z,100255.53
2022-12-01T08:02:59.174Z,100251.16
2022-12-01T08:04:00.763Z,100262.34
2022-12-01T08:05:02.213Z,100252.78
2022-12-01T08:06:04.372Z,100262.25
2022-12-01T08:07:05.924Z,100256.28
2022-12-01T08:08:07.514Z,100261.41
2022-12-01T08:09:09.267Z,100263.81
2022-12-01T08:10:11.258Z,100258.44
2022-12-01T08:11:15.980Z,100251.44
2022-12-01T08:12:17.679Z,100251.41
2022-12-01T08:13:19.997Z,100263.44
2022-12-01T08:14:21.543Z,100260.75
2022-12-01T08:15:23.173Z,100260.72
2022-12-01T08:16:25.613Z,100257.25
2022-12-01T08:17:27.231Z,100253.72
2022-12-01T08:18:28.769Z,100251.22
2022-12-01T08:19:30.599Z,100253.88
2022-12-01T08:20:32.214Z,100253.88
2022-12-01T08:21:33.729Z,100248.69
2022-12-01T08:22:35.710Z,100245.38
2022-12-01T08:23:37.235Z,100246.03
2022-12-01T08:24:38.751Z,100246.88
2022-12-01T08:25:40.418Z,100252.25
2022-12-01T08:26:42.040Z,100253.09
2022-12-01T08:27:43.677Z,100254.94
2022-12-01T08:28:46.308Z,100259.19
2022-12-01T08:29:48.363Z,100254.13
2022-12-01T08:30:50.183Z,100250.59
2022-12-01T08:31:51.947Z,100244.50
2022-12-01T08:32:55.099Z,100254.16
2022-12-01T08:33:57.525Z,100252.41
2022-12-01T08:34:59.104Z,100247.31
2022-12-01T08:36:04.971Z,100245.28
2022-12-01T08:37:06.593Z,100244.38
2022-12-01T08:38:08.993Z,100254.03
2022-12-01T08:39:10.903Z,100248.84
2022-12-01T08:40:12.812Z,100242.69
2022-12-01T08:41:15.295Z,100246.88
2022-12-01T08:42:16.866Z,100243.47
2022-12-01T08:43:49.603Z,100241.63
2022-12-01T08:44:39.906Z,100245.91
2022-12-01T08:45:41.702Z,100243.41
2022-12-01T08:46:43.213Z,100244.97
2022-12-01T08:47:44.801Z,100244.97
2022-12-01T08:48:46.807Z,100245.13
2022-12-01T08:49:48.554Z,100241.88
2022-12-01T08:50:50.204Z,100241.06
2022-12-01T08:51:51.988Z,100244.50
2022-12-01T08:52:53.589Z,100247.06
2022-12-01T08:53:56.933Z,100236.72
2022-12-01T08:54:58.632Z,100248.16
2022-12-01T08:56:02.446Z,100237.94
2022-12-01T08:57:04.075Z,100244.00
2022-12-01T08:58:05.822Z,100247.72
2022-12-01T08:59:08.210Z,100251.00
2022-12-01T09:00:10.303Z,100254.44
2022-12-01T09:01:14.140Z,100254.38
2022-12-01T09:02:15.918Z,100255.22
2022-12-01T09:03:17.539Z,100244.03
2022-12-01T09:04:20.625Z,100234.44
2022-12-01T09:05:22.113Z,100249.88
2022-12-01T09:06:23.613Z,100249.88
2022-12-01T09:07:26.802Z,100249.03
2022-12-01T09:08:28.777Z,100249.97
2022-12-01T09:09:30.277Z,100252.63
2022-12-01T09:10:32.199Z,100247.31
2022-12-01T09:11:33.738Z,100252.63
2022-12-01T09:12:35.456Z,100243.22
2022-12-01T09:13:38.575Z,100248.28
2022-12-01T09:14:42.788Z,100248.34
2022-12-01T09:15:44.568Z,100250.03
2022-12-01T09:16:47.866Z,100254.13
2022-12-01T09:17:49.517Z,100242.94
2022-12-01T09:18:51.020Z,100237.81
2022-12-01T09:19:52.760Z,100247.75
2022-12-01T09:20:55.798Z,100248.44
2022-12-01T09:21:57.699Z,100246.53
2022-12-01T09:22:59.249Z,100244.91
2022-12-01T09:24:01.823Z,100231.84
2022-12-01T09:25:03.550Z,100243.72
2022-12-01T09:26:07.066Z,100240.88
2022-12-01T09:27:11.238Z,100242.41
2022-12-01T09:28:12.939Z,100245.75
2022-12-01T09:29:16.229Z,100239.78
2022-12-01T09:30:17.998Z,100234.53
2022-12-01T09:31:20.766Z,100236.16
2022-12-01T09:32:22.355Z,100232.66
2022-12-01T09:33:23.862Z,100234.63
2022-12-01T09:34:26.218Z,100236.44
2022-12-01T09:35:27.862Z,100235.59
2022-12-01T09:36:31.312Z,100232.19
2022-12-01T09:37:33.449Z,100234.78
2022-12-01T09:38:37.235Z,100235.66
2022-12-01T09:39:38.736Z,100233.84
2022-12-01T09:40:43.781Z,100222.53
2022-12-01T09:41:50.824Z,100229.38
2022-12-01T09:42:52.532Z,100226.00
2022-12-01T09:44:18.823Z,100220.84
2022-12-01T09:45:26.939Z,100214.88
2022-12-01T09:46:32.648Z,100229.59
2022-12-01T09:47:37.756Z,100215.94
2022-12-01T09:48:43.782Z,100211.50
2022-12-01T09:50:10.084Z,100219.09
2022-12-01T09:51:27.254Z,100212.03
2022-12-01T09:52:53.211Z,100212.22
2022-12-01T09:53:58.188Z,100213.09
2022-12-01T09:55:01.542Z,100211.38
2022-12-01T09:56:10.032Z,100216.41
2022-12-01T09:57:23.665Z,100212.09
2022-12-01T09:58:30.177Z,100213.91
2022-12-01T09:59:38.325Z,100213.78
2022-12-01T10:00:43.502Z,100212.03
2022-12-01T10:01:48.724Z,100210.34
2022-12-01T10:03:00.563Z,100212.84
2022-12-01T10:04:20.318Z,100209.16
2022-12-01T10:05:28.193Z,100215.88
2022-12-01T10:06:38.748Z,100214.00
2022-12-01T10:07:47.086Z,100206.16
2022-12-01T10:09:05.066Z,100210.50
2022-12-01T10:10:28.431Z,100211.34
2022-12-01T10:11:29.869Z,100212.44
2022-12-01T10:12:33.102Z,100218.66
2022-12-01T10:13:35.307Z,100217.84
2022-12-01T10:14:37.439Z,100217.31
2022-12-01T10:15:41.844Z,100215.66
2022-12-01T10:17:00.865Z,100213.97
2022-12-01T10:18:25.614Z,100208.72
2022-12-01T10:19:42.473Z,100211.38
2022-12-01T10:21:22.870Z,100211.38
2022-12-01T10:22:48.914Z,100212.16
2022-12-01T10:24:05.370Z,100212.16
2022-12-01T10:25:21.874Z,100208.03
2022-12-01T10:27:02.288Z,100205.44
2022-12-01T10:28:12.616Z,100206.34
2022-12-01T10:29:38.561Z,100207.28
2022-12-01T10:30:51.110Z,100201.22
2022-12-01T10:32:03.383Z,100203.75
2022-12-01T10:33:18.242Z,100201.25
2022-12-01T10:34:27.309Z,100201.47
2022-12-01T10:35:32.796Z,100208.34
2022-12-01T10:36:34.478Z,100203.91
2022-12-01T10:37:35.979Z,100199.31
2022-12-01T10:38:38.497Z,100203.53
2022-12-01T10:39:43.186Z,100204.34
2022-12-01T10:40:45.421Z,100197.31
2022-12-01T10:41:49.631Z,100191.16
2022-12-01T10:42:51.665Z,100197.31
2022-12-01T10:43:58.422Z,100207.69
2022-12-01T10:45:02.811Z,100204.31
2022-12-01T10:46:20.005Z,100198.34
2022-12-01T10:47:24.455Z,100190.81
2022-12-01T10:48:26.143Z,100191.78
2022-12-01T10:49:41.187Z,100186.34
2022-12-01T10:50:44.028Z,100186.03
2022-12-01T10:51:48.324Z,100183.44
2022-12-01T10:52:49.933Z,100192.09
2022-12-01T10:53:59.520Z,100187.03
2022-12-01T10:55:02.422Z,100189.50
2022-12-01T10:56:12.632Z,100190.41
2022-12-01T10:57:16.240Z,100190.63
2022-12-01T10:58:19.609Z,100184.59
2022-12-01T10:59:38.897Z,100186.34
2022-12-01T11:02:14.175Z,100192.78
2022-12-01T11:03:25.796Z,100189.31
2022-12-01T11:04:55.519Z,100189.22
2022-12-01T11:05:59.785Z,100193.44
2022-12-01T11:07:03.111Z,100187.41
2022-12-01T11:08:05.777Z,100190.75
2022-12-01T11:09:26.669Z,100188.94
2022-12-01T11:10:33.391Z,100192.53
2022-12-01T11:11:38.890Z,100188.03
2022-12-01T11:12:40.980Z,100194.81
2022-12-01T11:13:42.599Z,100183.44
2022-12-01T11:14:44.155Z,100194.56
2022-12-01T11:16:00.447Z,100190.38
2022-12-01T11:17:26.417Z,100187.50
2022-12-01T11:18:27.888Z,100194.38
2022-12-01T11:19:34.546Z,100190.09
2022-12-01T11:20:40.689Z,100191.78
2022-12-01T11:21:50.809Z,100192.72
2022-12-01T11:22:52.403Z,100190.13
2022-12-01T11:23:55.885Z,100194.38
2022-12-01T11:25:05.289Z,100190.13
2022-12-01T11:26:33.873Z,100179.91
2022-12-01T11:27:50.082Z,100189.34
2022-12-01T11:29:01.084Z,100193.75
2022-12-01T11:30:19.964Z,100192.16
2022-12-01T11:31:25.119Z,100193.81
2022-12-01T11:32:33.821Z,100193.69
2022-12-01T11:33:45.011Z,100197.75
2022-12-01T11:34:51.990Z,100187.31
2022-12-01T11:35:54.368Z,100198.53
2022-12-01T11:36:59.970Z,100191.66
2022-12-01T11:38:28.835Z,100188.16
2022-12-01T11:39:29.929Z,100189.06
2022-12-01T11:40:32.910Z,100189.97
2022-12-01T11:41:39.704Z,100188.16
2022-12-01T11:42:41.841Z,100185.63
2022-12-01T11:43:50.521Z,100184.03
2022-12-01T11:45:05.587Z,100182.34
2022-12-01T11:46:09.510Z,100186.78
2022-12-01T11:47:24.563Z,100179.78
2022-12-01T11:48:29.926Z,100184.16
2022-12-01T11:49:31.788Z,100183.28
2022-12-01T11:50:36.447Z,100181.56
2022-12-01T11:51:38.052Z,100184.03
2022-12-01T11:52:47.434Z,100182.28
2022-12-01T11:53:49.145Z,100175.28
2022-12-01T11:55:13.320Z,100172.56
2022-12-01T11:56:24.500Z,100180.25
2022-12-01T11:57:36.386Z,100178.34
2022-12-01T11:58:38.020Z,100172.34
2022-12-01T11:59:39.534Z,100173.44
2022-12-01T12:00:50.129Z,100175.47
2022-12-01T12:02:14.795Z,100170.56
2022-12-01T12:03:16.313Z,100178.47
2022-12-01T12:04:31.849Z,100174.06
2022-12-01T12:07:54.336Z,100173.34
2022-12-01T12:09:17.724Z,100173.31
2022-12-01T12:10:45.672Z,100173.03
2022-12-01T12:11:57.431Z,100176.38
2022-12-01T12:13:10.984Z,100178.09
2022-12-01T12:14:18.312Z,100178.72
2022-12-01T12:15:38.461Z,100175.91
2022-12-01T12:16:56.285Z,100175.66
2022-12-01T12:18:17.615Z,100179.00
2022-12-01T12:20:06.174Z,100171.94
2022-12-01T12:21:17.627Z,100175.59
2022-12-01T12:22:26.028Z,100182.00
2022-12-01T12:23:47.747Z,100182.28
2022-12-01T12:24:56.389Z,100184.09
2022-12-01T12:26:16.293Z,100187.50
2022-12-01T12:27:26.954Z,100184.66
2022-12-01T12:28:50.515Z,100188.84
2022-12-01T12:30:19.585Z,100189.72
2022-12-01T12:31:28.246Z,100185.34
2022-12-01T12:32:47.792Z,100182.56
2022-12-01T12:34:10.856Z,100184.19
2022-12-01T12:35:37.383Z,100183.28